createdAt,value
2022-08-05T00:01:28.625Z,98888.23
2022-08-05T00:03:56.900Z,98889.55
2022-08-05T00:06:32.243Z,98889.02
2022-08-05T00:09:00.949Z,98880.74
2022-08-05T00:11:30.546Z,98878.45
2022-08-05T00:14:12.859Z,98879.73
2022-08-05T00:16:52.661Z,98877.74
2022-08-05T00:19:22.697Z,98875.99
2022-08-05T00:21:51.893Z,98876.08
2022-08-05T00:24:24.751Z,98879.42
2022-08-05T00:26:58.693Z,98873.39
2022-08-05T00:29:26.155Z,98874.96
2022-08-05T00:32:12.742Z,98873.83
2022-08-05T00:35:03.513Z,98873.38
2022-08-05T00:37:51.176Z,98867.76
2022-08-05T00:40:26.801Z,98865.09
2022-08-05T00:42:57.438Z,98866.38
2022-08-05T00:45:28.233Z,98868.14
2022-08-05T00:48:15.963Z,98867.99
2022-08-05T00:50:46.086Z,98866.77
2022-08-05T00:54:00.032Z,98863.83
2022-08-05T00:56:04.800Z,98864.52
2022-08-05T00:58:31.365Z,98864.48
2022-08-05T01:00:58.395Z,98864.60
2022-08-05T01:03:30.876Z,98858.90
2022-08-05T01:06:00.575Z,98860.95
2022-08-05T01:08:40.576Z,98857.49
2022-08-05T01:11:21.830Z,98857.55
2022-08-05T01:14:02.365Z,98856.70
2022-08-05T01:16:36.978Z,98855.10
2022-08-05T01:19:15.622Z,98852.41
2022-08-05T01:22:02.582Z,98851.62
2022-08-05T01:24:44.520Z,98850.22
2022-08-05T01:27:55.271Z,98848.88
2022-08-05T01:30:34.502Z,98846.76
2022-08-05T01:33:08.250Z,98845.83
2022-08-05T01:35:51.806Z,98843.58
2022-08-05T01:38:27.207Z,98842.73
2022-08-05T01:40:59.435Z,98839.91
2022-08-05T01:43:28.169Z,98836.92
2022-08-05T01:45:58.017Z,98834.77
2022-08-05T01:48:26.331Z,98834.04
2022-08-05T01:50:55.794Z,98829.82
2022-08-05T01:53:57.582Z,98828.91
2022-08-05T01:56:13.292Z,98823.64
2022-08-05T01:59:03.097Z,98821.61
2022-08-05T02:01:37.980Z,98819.53
2022-08-05T02:04:09.373Z,98820.20
2022-08-05T02:06:38.983Z,98815.89
2022-08-05T02:09:07.469Z,98818.60
2022-08-05T02:11:48.078Z,98814.69
2022-08-05T02:14:28.288Z,98813.41
2022-08-05T02:16:58.406Z,98813.77
2022-08-05T02:19:28.103Z,98811.89
2022-08-05T02:22:26.495Z,98808.84
2022-08-05T02:25:04.476Z,98809.81
2022-08-05T02:27:58.345Z,98805.38
2022-08-05T02:30:23.065Z,98805.88
2022-08-05T02:32:57.350Z,98805.96
2022-08-05T02:35:28.113Z,98802.64
2022-08-05T02:38:02.347Z,98803.79
2022-08-05T02:40:30.909Z,98803.17
2022-08-05T02:43:00.048Z,98800.33
2022-08-05T02:45:28.689Z,98800.66
2022-08-05T02:48:16.932Z,98795.27
2022-08-05T02:50:49.964Z,98793.89
2022-08-05T02:53:20.180Z,98794.05
2022-08-05T02:55:59.505Z,98797.38
2022-08-05T02:58:29.982Z,98794.33
2022-08-05T03:01:02.153Z,98795.29
2022-08-05T03:03:34.036Z,98797.46
2022-08-05T03:06:54.540Z,98788.65
2022-08-05T03:09:05.625Z,98786.29
2022-08-05T03:11:56.350Z,98791.02
2022-08-05T03:14:21.104Z,98785.02
2022-08-05T03:16:49.152Z,98783.31
2022-08-05T03:19:33.853Z,98781.91
2022-08-05T03:22:00.801Z,98785.02
2022-08-05T03:24:30.022Z,98780.71
2022-08-05T03:26:59.462Z,98780.67
2022-08-05T03:29:45.867Z,98779.73
2022-08-05T03:32:17.200Z,98776.42
2022-08-05T03:34:50.589Z,98776.15
2022-08-05T03:37:23.231Z,98775.21
2022-08-05T03:39:59.113Z,98779.41
2022-08-05T03:42:32.400Z,98779.14
2022-08-05T03:45:21.476Z,98777.22
2022-08-05T03:47:50.999Z,98777.60
2022-08-05T03:50:17.757Z,98772.60
2022-08-05T03:55:50.694Z,98773.36
2022-08-05T03:56:17.133Z,98770.89
2022-08-05T03:58:54.535Z,98766.93
2022-08-05T04:01:24.366Z,98770.06
2022-08-05T04:04:09.540Z,98763.84
2022-08-05T04:06:38.188Z,98758.08
2022-08-05T04:09:15.570Z,98757.20
2022-08-05T04:11:50.667Z,98755.52
2022-08-05T04:14:19.312Z,98755.92
2022-08-05T04:16:59.366Z,98754.23
2022-08-05T04:19:28.508Z,98752.19
2022-08-05T04:22:08.561Z,98752.72
2022-08-05T04:24:44.603Z,98751.45
2022-08-05T04:27:19.473Z,98752.58
2022-08-05T04:30:07.841Z,98748.02
2022-08-05T04:32:36.468Z,98752.50
2022-08-05T04:35:07.712Z,98748.16
2022-08-05T04:38:01.296Z,98746.52
2022-08-05T04:40:37.297Z,98746.20
2022-08-05T04:43:16.290Z,98748.54
2022-08-05T04:45:48.966Z,98752.97
2022-08-05T04:52:43.750Z,98747.70
2022-08-05T04:55:14.931Z,98750.82
2022-08-05T04:57:48.034Z,98751.35
2022-08-05T05:00:19.459Z,98747.59
2022-08-05T05:02:50.470Z,98750.91
2022-08-05T05:05:28.575Z,98752.20
2022-08-05T05:08:14.318Z,98753.98
2022-08-05T05:10:56.221Z,98755.92
2022-08-05T05:13:23.144Z,98756.19
2022-08-05T05:15:56.211Z,98750.71
2022-08-05T05:18:28.416Z,98750.17
2022-08-05T05:21:00.698Z,98752.89
2022-08-05T05:23:38.856Z,98751.12
2022-08-05T05:26:13.528Z,98753.52
2022-08-05T05:28:45.125Z,98751.63
2022-08-05T05:31:12.542Z,98756.23
2022-08-05T05:33:58.870Z,98753.49
2022-08-05T05:36:28.767Z,98754.47
2022-08-05T05:38:57.417Z,98752.28
2022-08-05T05:41:24.255Z,98759.44
2022-08-05T05:43:56.814Z,98754.44
2022-08-05T05:46:26.681Z,98753.83
2022-08-05T05:48:53.154Z,98756.14
2022-08-05T05:51:24.037Z,98759.55
2022-08-05T05:53:57.503Z,98757.02
2022-08-05T05:56:49.731Z,98760.76
2022-08-05T05:59:16.799Z,98758.73
2022-08-05T06:01:57.914Z,98758.97
2022-08-05T06:04:24.567Z,98756.62
2022-08-05T06:06:51.187Z,98760.94
2022-08-05T06:09:27.484Z,98761.28
2022-08-05T06:12:09.501Z,98764.02
2022-08-05T06:14:36.921Z,98765.08
2022-08-05T06:17:24.396Z,98763.73
2022-08-05T06:19:56.775Z,98760.21
2022-08-05T06:22:29.173Z,98759.73
2022-08-05T06:24:55.665Z,98761.40
2022-08-05T06:28:11.583Z,98763.06
2022-08-05T06:30:17.873Z,98770.86
2022-08-05T06:32:47.749Z,98765.30
2022-08-05T06:35:15.417Z,98762.46
2022-08-05T06:37:58.027Z,98765.56
2022-08-05T06:40:28.012Z,98763.38
2022-08-05T06:42:59.501Z,98760.64
2022-08-05T06:45:45.033Z,98762.81
2022-08-05T06:48:53.712Z,98762.94
2022-08-05T06:51:00.029Z,98766.05
2022-08-05T06:53:28.583Z,98762.35
2022-08-05T06:56:02.873Z,98760.94
2022-08-05T06:58:36.299Z,98758.39
2022-08-05T07:01:05.969Z,98757.82
2022-08-05T07:03:34.064Z,98756.91
2022-08-05T07:06:05.694Z,98758.67
2022-08-05T07:08:42.994Z,98754.53
2022-08-05T07:11:15.927Z,98754.96
2022-08-05T07:14:02.044Z,98749.19
2022-08-05T07:17:56.837Z,98747.32
2022-08-05T07:22:22.317Z,98749.10
2022-08-05T07:25:54.153Z,98747.30
2022-08-05T07:27:58.346Z,98744.69
2022-08-05T07:30:38.865Z,98745.23
2022-08-05T07:33:17.112Z,98749.73
2022-08-05T07:36:03.457Z,98748.66
2022-08-05T07:38:35.417Z,98758.92
2022-08-05T07:42:07.098Z,98752.96
2022-08-05T07:44:06.021Z,98758.27
2022-08-05T07:46:41.422Z,98754.33
2022-08-05T07:49:15.279Z,98750.04
2022-08-05T07:51:53.120Z,98747.20
2022-08-05T07:54:30.773Z,98744.83
2022-08-05T07:57:01.626Z,98743.15
2022-08-05T07:59:41.583Z,98738.81
2022-08-05T08:02:16.608Z,98742.66
2022-08-05T08:04:48.742Z,98745.81
2022-08-05T08:07:22.834Z,98747.55
2022-08-05T08:09:52.254Z,98744.99
2022-08-05T08:12:37.377Z,98744.46
2022-08-05T08:15:15.830Z,98738.65
2022-08-05T08:17:49.907Z,98740.08
2022-08-05T08:20:59.752Z,98739.40
2022-08-05T08:24:00.068Z,98742.73
2022-08-05T08:26:00.896Z,98738.55
2022-08-05T08:28:37.085Z,98740.48
2022-08-05T08:31:09.733Z,98744.17
2022-08-05T08:33:41.722Z,98742.35
2022-08-05T08:36:38.760Z,98744.84
2022-08-05T08:38:55.104Z,98742.41
2022-08-05T08:41:25.997Z,98743.38
2022-08-05T08:45:22.868Z,98739.32
2022-08-05T08:46:59.621Z,98740.55
2022-08-05T08:50:23.390Z,98736.62
2022-08-05T08:52:31.590Z,98734.68
2022-08-05T08:54:59.130Z,98733.17
2022-08-05T08:57:42.018Z,98736.41
2022-08-05T09:00:15.788Z,98737.35
2022-08-05T09:02:46.141Z,98735.72
2022-08-05T09:05:17.966Z,98738.66
2022-08-05T09:07:56.997Z,98736.64
2022-08-05T09:10:27.106Z,98740.46
2022-08-05T09:12:57.211Z,98738.15
2022-08-05T09:15:31.553Z,98733.13
2022-08-05T09:18:06.830Z,98731.36
2022-08-05T09:20:38.088Z,98728.67
2022-08-05T09:23:19.601Z,98726.43
2022-08-05T09:26:01.029Z,98726.90
2022-08-05T09:28:33.467Z,98724.56
2022-08-05T09:31:22.907Z,98725.52
2022-08-05T09:33:59.232Z,98723.10
2022-08-05T09:36:53.920Z,98723.48
2022-08-05T09:39:24.179Z,98728.05
2022-08-05T09:42:07.888Z,98727.87
2022-08-05T09:44:50.481Z,98727.81
2022-08-05T09:47:23.791Z,98731.23
2022-08-05T09:50:02.269Z,98730.06
2022-08-05T09:52:34.998Z,98730.33
2022-08-05T09:55:58.277Z,98728.33
2022-08-05T09:57:54.428Z,98729.73
2022-08-05T10:00:25.407Z,98732.80
2022-08-05T10:02:54.188Z,98730.50
2022-08-05T10:05:26.678Z,98729.02
2022-08-05T10:08:36.878Z,98721.09
2022-08-05T10:10:54.156Z,98712.58
2022-08-05T10:13:47.476Z,98712.80
2022-08-05T10:16:53.113Z,98715.42
2022-08-05T10:19:23.456Z,98718.35
2022-08-05T10:21:50.715Z,98715.12
2022-08-05T10:24:19.062Z,98710.24
2022-08-05T10:26:51.601Z,98712.10
2022-08-05T10:29:23.490Z,98706.16
2022-08-05T10:32:53.122Z,98710.54
2022-08-05T10:34:40.891Z,98713.70
2022-08-05T10:37:12.103Z,98713.96
2022-08-05T10:39:59.088Z,98710.70
2022-08-05T10:42:36.118Z,98710.26
2022-08-05T10:45:20.857Z,98713.13
2022-08-05T10:48:30.640Z,98710.42
2022-08-05T10:50:58.375Z,98708.00
2022-08-05T10:53:38.091Z,98701.63
2022-08-05T10:56:25.386Z,98696.80
2022-08-05T10:58:55.232Z,98704.77
2022-08-05T11:01:55.012Z,98701.70
2022-08-05T11:04:27.060Z,98702.53
2022-08-05T11:06:58.146Z,98701.48
2022-08-05T11:09:45.116Z,98696.92
2022-08-05T11:12:41.886Z,98697.48
2022-08-05T11:15:59.969Z,98692.02
2022-08-05T11:18:34.350Z,98697.91
2022-08-05T11:21:02.247Z,98693.90
2022-08-05T11:24:03.207Z,98693.20
2022-08-05T11:26:28.545Z,98695.71
2022-08-05T11:29:12.196Z,98699.02
2022-08-05T11:31:57.607Z,98699.72
2022-08-05T11:34:50.831Z,98702.66
2022-08-05T11:38:28.066Z,98700.61
2022-08-05T11:41:56.287Z,98697.72
2022-08-05T11:44:11.004Z,98703.16
2022-08-05T11:46:58.697Z,98698.40
2022-08-05T11:49:34.321Z,98696.48
2022-08-05T11:52:08.739Z,98696.61
2022-08-05T11:54:40.420Z,98696.27
2022-08-05T11:57:26.028Z,98698.52
2022-08-05T11:59:54.621Z,98704.89
2022-08-05T12:02:30.097Z,98702.89
2022-08-05T12:04:59.124Z,98698.94
2022-08-05T12:08:09.138Z,98692.96
2022-08-05T12:10:20.935Z,98691.24
2022-08-05T12:12:59.722Z,98688.06
2022-08-05T12:15:35.764Z,98682.26
2022-08-05T12:18:11.062Z,98680.52
2022-08-05T12:20:42.090Z,98681.42
2022-08-05T12:23:12.408Z,98677.65
2022-08-05T12:25:53.374Z,98677.24
2022-08-05T12:28:34.854Z,98679.89
2022-08-05T12:31:05.003Z,98673.38
2022-08-05T12:33:36.339Z,98671.83
2022-08-05T12:36:07.990Z,98670.15
2022-08-05T12:38:39.997Z,98666.95
2022-08-05T12:41:12.946Z,98668.42
2022-08-05T12:43:56.843Z,98666.98
2022-08-05T12:46:28.915Z,98668.25
2022-08-05T12:49:13.528Z,98667.95
2022-08-05T12:52:12.756Z,98664.86
2022-08-05T12:54:40.587Z,98660.95
2022-08-05T12:57:12.894Z,98657.53
2022-08-05T13:01:57.647Z,98656.02
2022-08-05T13:02:35.502Z,98652.66
2022-08-05T13:05:07.860Z,98648.64
2022-08-05T13:10:23.651Z,98646.41
2022-08-05T13:12:58.191Z,98644.98
2022-08-05T13:15:41.295Z,98643.71
2022-08-05T13:18:19.818Z,98643.34
2022-08-05T13:20:49.410Z,98645.80
2022-08-05T13:23:22.134Z,98646.77
2022-08-05T13:25:59.600Z,98651.45
2022-08-05T13:28:28.333Z,98647.17
2022-08-05T13:30:58.232Z,98648.83
2022-08-05T13:34:23.188Z,98646.77
2022-08-05T13:36:12.876Z,98642.44
2022-08-05T13:38:42.280Z,98643.73
2022-08-05T13:41:15.534Z,98643.31
2022-08-05T13:43:54.512Z,98638.65
2022-08-05T13:46:38.033Z,98637.09
2022-08-05T13:49:12.060Z,98635.89
2022-08-05T13:51:41.538Z,98634.55
2022-08-05T13:54:13.625Z,98634.36
2022-08-05T13:56:45.524Z,98637.05
2022-08-05T13:59:24.245Z,98632.91
2022-08-05T14:01:58.628Z,98630.27
2022-08-05T14:04:49.459Z,98632.65
2022-08-05T14:07:55.637Z,98631.12
2022-08-05T14:10:13.613Z,98631.46
2022-08-05T14:12:48.784Z,98628.96
2022-08-05T14:16:08.353Z,98623.59
2022-08-05T14:18:05.916Z,98618.91
2022-08-05T14:20:41.970Z,98621.56
2022-08-05T14:23:25.005Z,98621.15
2022-08-05T14:25:59.086Z,98620.70
2022-08-05T14:28:28.714Z,98616.09
2022-08-05T14:30:59.706Z,98613.98
2022-08-05T14:33:27.268Z,98613.44
2022-08-05T14:36:00.786Z,98612.45
2022-08-05T14:38:34.014Z,98618.33
2022-08-05T14:41:07.410Z,98610.95
2022-08-05T14:43:59.272Z,98610.09
2022-08-05T14:46:28.077Z,98603.84
2022-08-05T14:48:58.072Z,98605.73
2022-08-05T14:51:26.505Z,98612.87
2022-08-05T14:54:25.846Z,98612.11
2022-08-05T14:56:46.584Z,98612.42
2022-08-05T14:59:15.265Z,98608.33
2022-08-05T15:01:48.357Z,98609.60
2022-08-05T15:04:17.375Z,98605.59
2022-08-05T15:06:49.585Z,98605.75
2022-08-05T15:09:50.609Z,98603.74
2022-08-05T15:12:06.562Z,98603.54
2022-08-05T15:14:48.336Z,98604.30
2022-08-05T15:17:45.737Z,98602.54
2022-08-05T15:20:13.421Z,98607.92
2022-08-05T15:22:45.371Z,98601.92
2022-08-05T15:25:14.200Z,98605.16
2022-08-05T15:27:43.058Z,98599.24
2022-08-05T15:30:19.101Z,98600.27
2022-08-05T15:32:46.762Z,98598.90
2022-08-05T15:35:14.838Z,98595.39
2022-08-05T15:38:34.272Z,98590.15
2022-08-05T15:41:00.431Z,98590.07
2022-08-05T15:43:20.087Z,98591.02
2022-08-05T15:46:00.233Z,98587.55
2022-08-05T15:48:29.358Z,98590.44
2022-08-05T15:50:56.573Z,98586.39
2022-08-05T15:53:23.146Z,98587.91
2022-08-05T15:56:02.117Z,98584.70
2022-08-05T15:58:35.522Z,98582.20
2022-08-05T16:01:17.391Z,98589.40
2022-08-05T16:03:50.810Z,98585.20
2022-08-05T16:06:19.653Z,98585.41
2022-08-05T16:08:50.410Z,98581.77
2022-08-05T16:11:21.002Z,98578.32
2022-08-05T16:14:07.338Z,98581.13
2022-08-05T16:16:35.897Z,98587.08
2022-08-05T16:19:03.244Z,98590.77
2022-08-05T16:21:59.236Z,98593.82
2022-08-05T16:24:39.898Z,98591.92
2022-08-05T16:27:04.858Z,98589.64
2022-08-05T16:29:37.419Z,98597.91
2022-08-05T16:32:09.697Z,98594.95
2022-08-05T16:34:36.746Z,98595.98
2022-08-05T16:38:03.293Z,98594.66
2022-08-05T16:40:05.116Z,98598.32
2022-08-05T16:42:34.755Z,98594.83
2022-08-05T16:45:05.988Z,98595.33
2022-08-05T16:47:53.498Z,98598.83
2022-08-05T16:50:23.128Z,98600.26
2022-08-05T16:52:50.059Z,98605.32
2022-08-05T16:55:16.891Z,98610.09
2022-08-05T16:57:53.659Z,98607.39
2022-08-05T17:00:35.106Z,98607.52
2022-08-05T17:03:09.192Z,98607.65
2022-08-05T17:05:42.425Z,98612.88
2022-08-05T17:08:09.080Z,98609.98
2022-08-05T17:10:39.865Z,98618.53
2022-08-05T17:13:06.532Z,98621.65
2022-08-05T17:15:47.807Z,98621.36
2022-08-05T17:18:16.548Z,98625.99
2022-08-05T17:20:46.116Z,98630.67
2022-08-05T17:23:41.983Z,98625.22
2022-08-05T17:25:59.234Z,98634.67
2022-08-05T17:28:25.663Z,98628.70
2022-08-05T17:30:55.349Z,98632.73
2022-08-05T17:33:21.938Z,98636.62
2022-08-05T17:36:07.998Z,98641.19
2022-08-05T17:38:43.673Z,98649.39
2022-08-05T17:42:16.640Z,98653.38
2022-08-05T17:43:59.698Z,98669.33
2022-08-05T17:46:26.107Z,98667.71
2022-08-05T17:48:53.569Z,98670.27
2022-08-05T17:51:21.569Z,98683.67
2022-08-05T17:53:50.846Z,98683.79
2022-08-05T17:56:22.700Z,98691.40
2022-08-05T17:58:51.193Z,98689.02
2022-08-05T18:01:18.965Z,98694.48
2022-08-05T18:03:58.915Z,98699.54
2022-08-05T18:06:31.354Z,98701.98
2022-08-05T18:08:58.242Z,98704.73
2022-08-05T18:11:32.627Z,98708.04
2022-08-05T18:14:04.218Z,98716.65
2022-08-05T18:16:32.713Z,98721.45
2022-08-05T18:18:59.145Z,98728.42
2022-08-05T18:21:26.443Z,98727.27
2022-08-05T18:24:12.583Z,98728.36
2022-08-05T18:26:41.099Z,98737.18
2022-08-05T18:29:10.384Z,98734.26
2022-08-05T18:31:37.153Z,98734.13
2022-08-05T18:34:12.173Z,98741.45
2022-08-05T18:36:39.594Z,98741.02
2022-08-05T18:39:22.251Z,98742.77
2022-08-05T18:42:03.690Z,98743.38
2022-08-05T18:44:49.166Z,98741.20
2022-08-05T18:47:22.573Z,98745.43
2022-08-05T18:50:10.702Z,98756.03
2022-08-05T18:52:41.267Z,98764.23
2022-08-05T18:55:17.178Z,98764.14
2022-08-05T18:57:52.574Z,98767.73
2022-08-05T19:00:27.172Z,98774.35
2022-08-05T19:03:03.384Z,98779.99
2022-08-05T19:06:11.210Z,98787.80
2022-08-05T19:08:19.067Z,98801.33
2022-08-05T19:10:50.237Z,98809.25
2022-08-05T19:13:17.484Z,98820.31
2022-08-05T19:15:59.901Z,98820.95
2022-08-05T19:18:30.252Z,98826.09
2022-08-05T19:20:59.025Z,98826.19
2022-08-05T19:24:06.253Z,98831.15
2022-08-05T19:26:15.827Z,98837.89
2022-08-05T19:28:43.825Z,98842.14
2022-08-05T19:31:13.123Z,98851.58
2022-08-05T19:33:48.192Z,98856.52
2022-08-05T19:36:29.314Z,98856.98
2022-08-05T19:39:00.721Z,98857.68
2022-08-05T19:41:57.995Z,98865.81
2022-08-05T19:44:18.543Z,98865.99
2022-08-05T19:46:45.572Z,98862.09
2022-08-05T19:49:16.811Z,98864.27
2022-08-05T19:52:08.996Z,98866.53
2022-08-05T19:54:34.265Z,98862.50
2022-08-05T19:57:09.477Z,98863.54
2022-08-05T20:00:00.864Z,98874.40
2022-08-05T20:02:25.936Z,98880.48
2022-08-05T20:04:54.830Z,98882.95
2022-08-05T20:07:48.679Z,98883.48
2022-08-05T20:10:13.899Z,98887.45
2022-08-05T20:12:47.833Z,98892.16
2022-08-05T20:15:48.140Z,98902.42
2022-08-05T20:18:33.172Z,98914.14
2022-08-05T20:21:04.777Z,98915.07
2022-08-05T20:23:40.362Z,98915.46
2022-08-05T20:26:24.307Z,98916.98
2022-08-05T20:28:55.934Z,98910.92
2022-08-05T20:31:28.563Z,98909.95
2022-08-05T20:34:11.026Z,98912.55
2022-08-05T20:36:43.346Z,98925.54
2022-08-05T20:39:13.306Z,98939.59
2022-08-05T20:41:45.353Z,98941.42
2022-08-05T20:44:17.686Z,98949.14
2022-08-05T20:46:57.379Z,98952.63
2022-08-05T20:49:26.399Z,98961.26
2022-08-05T20:51:54.621Z,98973.23
2022-08-05T20:54:25.318Z,98985.10
2022-08-05T20:56:52.614Z,98990.47
2022-08-05T20:59:26.497Z,98990.62
2022-08-05T21:01:55.735Z,98988.64
2022-08-05T21:04:26.960Z,98987.25
2022-08-05T21:06:55.913Z,98993.64
2022-08-05T21:09:22.951Z,98999.54
2022-08-05T21:12:09.226Z,98997.30
2022-08-05T21:14:37.870Z,98993.62
2022-08-05T21:17:06.088Z,98997.34
2022-08-05T21:19:47.159Z,99004.63
2022-08-05T21:22:21.810Z,99007.30
2022-08-05T21:24:52.030Z,99008.23
2022-08-05T21:27:25.081Z,99007.52
2022-08-05T21:29:57.061Z,99010.52
2022-08-05T21:32:27.083Z,99015.04
2022-08-05T21:35:08.945Z,99015.72
2022-08-05T21:37:47.118Z,99016.52
2022-08-05T21:40:22.155Z,99016.57
2022-08-05T21:42:53.499Z,99014.42
2022-08-05T21:45:24.612Z,99015.20
2022-08-05T21:47:56.572Z,99009.33
2022-08-05T21:50:25.696Z,99011.99
2022-08-05T21:52:52.949Z,99012.23
2022-08-05T21:56:01.084Z,99006.80
2022-08-05T21:58:10.345Z,99012.33
2022-08-05T22:00:40.159Z,99019.17
2022-08-05T22:03:09.762Z,99024.66
2022-08-05T22:05:48.956Z,99032.64
2022-08-05T22:08:22.058Z,99034.36
2022-08-05T22:10:50.665Z,99036.23
2022-08-05T22:14:19.709Z,99042.09
2022-08-05T22:16:20.341Z,99051.71
2022-08-05T22:18:52.499Z,99054.86
2022-08-05T22:21:19.933Z,99063.78
2022-08-05T22:24:12.923Z,99065.64
2022-08-05T22:27:14.026Z,99069.52
2022-08-05T22:29:43.692Z,99075.11
2022-08-05T22:32:17.356Z,99076.20
2022-08-05T22:34:44.185Z,99073.42
2022-08-05T22:37:12.255Z,99076.39
2022-08-05T22:39:38.863Z,99077.71
2022-08-05T22:42:12.715Z,99083.39
2022-08-05T22:44:46.996Z,99080.27
2022-08-05T22:47:29.683Z,99084.00
2022-08-05T22:50:21.695Z,99090.16
2022-08-05T22:52:52.567Z,99095.15
2022-08-05T22:55:21.823Z,99100.30
2022-08-05T22:57:50.546Z,99106.59
2022-08-05T23:00:20.570Z,99114.04
2022-08-05T23:02:48.934Z,99115.76
2022-08-05T23:05:16.476Z,99114.98
2022-08-05T23:07:48.347Z,99112.90
2022-08-05T23:10:16.246Z,99114.77
2022-08-05T23:12:54.621Z,99119.16
2022-08-05T23:15:29.433Z,99120.80
2022-08-05T23:18:03.369Z,99119.96
2022-08-05T23:20:37.184Z,99124.05
2022-08-05T23:23:07.993Z,99119.92
2022-08-05T23:25:53.156Z,99112.45
2022-08-05T23:28:27.672Z,99115.95
2022-08-05T23:31:15.691Z,99126.79
2022-08-05T23:34:04.885Z,99132.14
2022-08-05T23:36:40.244Z,99135.60
2022-08-05T23:39:17.419Z,99139.39
2022-08-05T23:41:59.714Z,99140.85
2022-08-05T23:44:27.918Z,99141.72
2022-08-05T23:47:00.157Z,99142.88
2022-08-05T23:49:35.796Z,99147.59
2022-08-05T23:52:21.660Z,99152.69
2022-08-05T23:54:53.835Z,99157.52
2022-08-05T23:57:20.612Z,99164.08
